createdAt,value
2017-12-17T00:01:28.444Z,23.27
2017-12-17T00:03:57.385Z,27.53
2017-12-17T00:06:26.381Z,25.07
2017-12-17T00:08:55.381Z,25.10
2017-12-17T00:11:24.319Z,22.20
2017-12-17T00:13:53.937Z,20.80
2017-12-17T00:16:22.807Z,20.80
2017-12-17T00:18:51.773Z,23.80
2017-12-17T00:21:21.173Z,25.70
2017-12-17T00:23:50.041Z,24.30
2017-12-17T00:26:18.905Z,24.60
2017-12-17T00:28:47.752Z,21.70
2017-12-17T00:31:16.631Z,21.77
2017-12-17T00:33:45.524Z,22.07
2017-12-17T00:36:14.381Z,22.10
2017-12-17T00:38:43.257Z,25.00
2017-12-17T00:41:12.219Z,26.83
2017-12-17T00:43:41.081Z,27.83
2017-12-17T00:46:09.929Z,23.00
2017-12-17T00:48:39.491Z,18.40
2017-12-17T00:51:08.892Z,21.63
2017-12-17T00:53:37.851Z,19.30
2017-12-17T00:56:06.747Z,22.97
2017-12-17T00:58:35.585Z,17.90
2017-12-17T01:01:04.445Z,23.63
2017-12-17T01:03:33.397Z,19.93
2017-12-17T01:06:02.255Z,19.03
2017-12-17T01:08:31.095Z,22.70
2017-12-17T01:10:59.959Z,19.43
2017-12-17T01:13:28.807Z,22.07
2017-12-17T01:15:57.643Z,22.93
2017-12-17T01:18:26.539Z,19.50
2017-12-17T01:20:55.383Z,20.00
2017-12-17T01:23:25.035Z,16.37
2017-12-17T01:25:53.927Z,21.40
2017-12-17T01:28:22.769Z,17.03
2017-12-17T01:30:51.609Z,19.10
2017-12-17T01:33:20.477Z,21.07
2017-12-17T01:35:49.903Z,19.37
2017-12-17T01:38:19.765Z,23.00
2017-12-17T01:40:48.638Z,19.03
2017-12-17T01:43:17.483Z,20.43
2017-12-17T01:45:46.394Z,18.97
2017-12-17T01:48:15.307Z,25.63
2017-12-17T01:50:44.331Z,20.57
2017-12-17T01:53:13.213Z,17.77
2017-12-17T01:55:42.134Z,22.30
2017-12-17T01:58:10.985Z,22.10
2017-12-17T02:00:39.838Z,16.90
2017-12-17T02:03:08.711Z,22.90
2017-12-17T02:05:37.557Z,20.93
2017-12-17T02:08:06.401Z,20.40
2017-12-17T02:10:35.272Z,19.13
2017-12-17T02:13:04.122Z,18.17
2017-12-17T02:15:32.975Z,19.47
2017-12-17T02:18:01.863Z,23.27
2017-12-17T02:20:30.785Z,19.10
2017-12-17T02:22:59.633Z,25.17
2017-12-17T02:25:28.505Z,22.07
2017-12-17T02:27:57.367Z,17.17
2017-12-17T02:30:26.205Z,19.27
2017-12-17T02:32:55.101Z,23.07
2017-12-17T02:35:23.952Z,25.00
2017-12-17T02:37:52.821Z,25.70
2017-12-17T02:40:22.703Z,19.53
2017-12-17T02:42:51.576Z,18.73
2017-12-17T02:45:20.403Z,19.87
2017-12-17T02:47:49.285Z,19.57
2017-12-17T02:50:18.327Z,21.07
2017-12-17T02:52:47.194Z,20.77
2017-12-17T02:55:16.091Z,19.27
2017-12-17T02:57:44.941Z,20.43
2017-12-17T03:00:13.791Z,21.67
2017-12-17T03:02:42.667Z,22.67
2017-12-17T03:05:11.532Z,25.93
2017-12-17T03:07:40.435Z,25.03
2017-12-17T03:10:09.308Z,20.83
2017-12-17T03:12:38.155Z,21.83
2017-12-17T03:15:07.051Z,25.30
2017-12-17T03:17:36.326Z,19.33
2017-12-17T03:20:05.177Z,23.50
2017-12-17T03:22:34.035Z,24.33
2017-12-17T03:25:03.545Z,21.07
2017-12-17T03:27:32.449Z,25.07
2017-12-17T03:30:01.296Z,17.17
2017-12-17T03:32:30.189Z,21.27
2017-12-17T03:34:59.045Z,23.83
2017-12-17T03:37:27.921Z,19.80
2017-12-17T03:39:56.798Z,26.57
2017-12-17T03:42:25.639Z,19.30
2017-12-17T03:44:54.541Z,24.97
2017-12-17T03:47:23.455Z,24.93
2017-12-17T03:49:52.303Z,23.80
2017-12-17T03:52:21.150Z,23.60
2017-12-17T03:54:50.093Z,27.13
2017-12-17T03:57:18.953Z,23.37
2017-12-17T03:59:47.787Z,25.20
2017-12-17T04:02:16.718Z,23.57
2017-12-17T04:04:45.565Z,27.63
2017-12-17T04:07:14.428Z,27.77
2017-12-17T04:09:43.311Z,29.00
2017-12-17T04:12:12.145Z,22.80
2017-12-17T04:14:41.257Z,25.50
2017-12-17T04:17:10.122Z,27.37
2017-12-17T04:19:38.974Z,32.10
2017-12-17T04:22:07.815Z,27.70
2017-12-17T04:24:36.743Z,27.47
2017-12-17T04:27:05.597Z,26.00
2017-12-17T04:29:34.443Z,27.37
2017-12-17T04:32:03.315Z,30.27
2017-12-17T04:34:32.152Z,28.03
2017-12-17T04:37:01.344Z,29.17
2017-12-17T04:39:30.214Z,29.60
2017-12-17T04:41:59.070Z,22.90
2017-12-17T04:44:27.914Z,32.73
2017-12-17T04:46:56.807Z,32.37
2017-12-17T04:49:25.651Z,27.60
2017-12-17T04:51:54.483Z,29.37
2017-12-17T04:54:23.524Z,28.20
2017-12-17T04:56:52.369Z,30.60
2017-12-17T04:59:21.239Z,31.70
2017-12-17T05:01:50.107Z,33.40
2017-12-17T05:04:18.970Z,40.27
2017-12-17T05:06:47.830Z,31.97
2017-12-17T05:09:16.731Z,30.13
2017-12-17T05:11:45.584Z,39.13
2017-12-17T05:14:14.522Z,28.00
2017-12-17T05:16:43.420Z,29.17
2017-12-17T05:19:12.257Z,31.93
2017-12-17T05:21:41.105Z,30.50
2017-12-17T05:24:09.988Z,32.50
2017-12-17T05:26:38.860Z,32.37
2017-12-17T05:29:07.693Z,31.90
2017-12-17T05:31:36.614Z,33.17
2017-12-17T05:34:05.480Z,31.63
2017-12-17T05:36:34.328Z,34.27
2017-12-17T05:39:03.839Z,28.93
2017-12-17T05:41:32.729Z,29.43
2017-12-17T05:44:01.579Z,32.10
2017-12-17T05:46:30.693Z,35.00
2017-12-17T05:49:00.090Z,32.37
2017-12-17T05:51:28.946Z,33.80
2017-12-17T05:53:57.812Z,33.20
2017-12-17T05:56:26.654Z,38.33
2017-12-17T05:58:55.543Z,32.00
2017-12-17T06:01:24.451Z,32.33
2017-12-17T06:03:53.311Z,32.67
2017-12-17T06:06:22.153Z,40.23
2017-12-17T06:08:51.039Z,31.30
2017-12-17T06:11:19.879Z,32.57
2017-12-17T06:13:48.709Z,36.90
2017-12-17T06:16:17.890Z,41.17
2017-12-17T06:18:46.745Z,33.07
2017-12-17T06:21:15.586Z,38.53
2017-12-17T06:23:44.479Z,32.80
2017-12-17T06:26:13.304Z,31.80
2017-12-17T06:28:42.178Z,32.13
2017-12-17T06:31:11.061Z,37.70
2017-12-17T06:33:39.977Z,36.90
2017-12-17T06:36:08.831Z,30.73
2017-12-17T06:38:37.719Z,31.40
2017-12-17T06:41:07.353Z,29.97
2017-12-17T06:43:36.879Z,33.23
2017-12-17T06:46:05.727Z,31.87
2017-12-17T06:48:34.579Z,33.60
2017-12-17T06:51:03.484Z,31.00
2017-12-17T06:53:32.381Z,36.07
2017-12-17T06:56:01.271Z,38.97
2017-12-17T06:58:30.165Z,39.90
2017-12-17T07:00:59.071Z,38.70
2017-12-17T07:03:27.931Z,34.80
2017-12-17T07:05:57.239Z,34.37
2017-12-17T07:08:26.139Z,29.77
2017-12-17T07:10:55.479Z,35.57
2017-12-17T07:13:24.380Z,34.03
2017-12-17T07:15:53.237Z,36.17
2017-12-17T07:18:22.103Z,33.30
2017-12-17T07:20:50.969Z,34.17
2017-12-17T07:23:19.834Z,33.17
2017-12-17T07:25:48.715Z,36.90
2017-12-17T07:28:17.583Z,39.73
2017-12-17T07:30:47.145Z,33.60
2017-12-17T07:33:16.018Z,40.87
2017-12-17T07:35:45.753Z,42.10
2017-12-17T07:38:14.665Z,37.90
2017-12-17T07:40:43.592Z,44.83
2017-12-17T07:43:13.295Z,43.93
2017-12-17T07:45:42.475Z,38.50
2017-12-17T07:48:11.369Z,44.50
2017-12-17T07:50:40.251Z,46.40
2017-12-17T07:53:09.094Z,55.03
2017-12-17T07:55:38.009Z,50.10
2017-12-17T07:58:06.882Z,58.70
2017-12-17T08:00:35.728Z,57.60
2017-12-17T08:03:04.595Z,60.07
2017-12-17T08:05:34.051Z,71.27
2017-12-17T08:08:03.603Z,73.87
2017-12-17T08:10:32.513Z,86.17
2017-12-17T08:13:01.375Z,102.77
2017-12-17T08:15:30.289Z,136.00
2017-12-17T08:17:59.159Z,169.77
2017-12-17T08:20:28.005Z,154.00
2017-12-17T08:22:56.873Z,143.20
2017-12-17T08:25:25.711Z,177.30
2017-12-17T08:27:54.607Z,201.57
2017-12-17T08:30:25.173Z,114.57
2017-12-17T08:32:54.055Z,119.70
2017-12-17T08:35:22.897Z,147.67
2017-12-17T08:37:51.791Z,152.63
2017-12-17T08:40:20.664Z,171.97
2017-12-17T08:42:49.553Z,185.67
2017-12-17T08:45:18.547Z,125.00
2017-12-17T08:47:47.425Z,210.63
2017-12-17T08:50:16.294Z,133.10
2017-12-17T08:52:45.139Z,97.50
2017-12-17T08:55:14.110Z,135.33
2017-12-17T08:57:43.886Z,179.57
2017-12-17T09:00:12.737Z,174.03
2017-12-17T09:02:43.223Z,123.37
2017-12-17T09:05:12.103Z,106.80
2017-12-17T09:07:41.011Z,181.80
2017-12-17T09:10:09.895Z,176.77
2017-12-17T09:12:38.755Z,110.80
2017-12-17T09:15:08.161Z,148.13
2017-12-17T09:17:37.515Z,198.97
2017-12-17T09:20:06.475Z,115.37
2017-12-17T09:22:35.331Z,187.23
2017-12-17T09:25:04.205Z,154.47
2017-12-17T09:27:33.061Z,200.20
2017-12-17T09:30:01.913Z,90.90
2017-12-17T09:32:30.817Z,187.27
2017-12-17T09:34:59.756Z,186.10
2017-12-17T09:37:28.611Z,221.03
2017-12-17T09:39:57.509Z,249.90
2017-12-17T09:42:26.371Z,113.53
2017-12-17T09:44:55.211Z,264.73
2017-12-17T09:47:24.147Z,234.97
2017-12-17T09:49:53.026Z,160.30
2017-12-17T09:52:21.875Z,135.80
2017-12-17T09:54:50.749Z,261.67
2017-12-17T09:57:19.597Z,113.40
2017-12-17T09:59:48.493Z,174.37
2017-12-17T10:02:18.273Z,151.40
2017-12-17T10:04:47.123Z,139.63
2017-12-17T10:07:16.098Z,172.67
2017-12-17T10:09:44.987Z,114.27
2017-12-17T10:12:13.850Z,107.90
2017-12-17T10:14:42.695Z,173.00
2017-12-17T10:17:11.607Z,149.23
2017-12-17T10:19:40.503Z,103.23
2017-12-17T10:22:09.379Z,161.37
2017-12-17T10:24:38.263Z,119.43
2017-12-17T10:27:07.122Z,200.10
2017-12-17T10:29:36.883Z,108.57
2017-12-17T10:32:06.483Z,165.27
2017-12-17T10:34:35.336Z,88.87
2017-12-17T10:37:04.187Z,78.13
2017-12-17T10:39:33.181Z,122.23
2017-12-17T10:42:02.075Z,103.47
2017-12-17T10:44:30.943Z,84.97
2017-12-17T10:46:59.850Z,82.13
2017-12-17T10:49:28.717Z,82.47
2017-12-17T10:51:57.595Z,90.13
2017-12-17T10:54:26.509Z,73.83
2017-12-17T10:56:55.395Z,73.63
2017-12-17T10:59:24.235Z,75.27
2017-12-17T11:01:53.099Z,74.97
2017-12-17T11:04:21.935Z,61.23
2017-12-17T11:06:50.788Z,66.43
2017-12-17T11:09:19.648Z,66.20
2017-12-17T11:11:48.536Z,71.67
2017-12-17T11:14:17.447Z,69.87
2017-12-17T11:16:46.314Z,60.13
2017-12-17T11:19:15.155Z,56.00
2017-12-17T11:21:43.989Z,50.97
2017-12-17T11:24:12.859Z,49.70
2017-12-17T11:26:42.085Z,46.97
2017-12-17T11:29:10.940Z,45.17
2017-12-17T11:31:39.825Z,34.10
2017-12-17T11:34:08.695Z,31.93
2017-12-17T11:36:37.547Z,32.00
2017-12-17T11:39:06.477Z,24.67
2017-12-17T11:41:35.363Z,15.73
2017-12-17T11:44:04.239Z,15.60
2017-12-17T11:46:33.112Z,14.57
2017-12-17T11:49:01.957Z,15.50
2017-12-17T11:51:30.865Z,11.00
2017-12-17T11:54:00.322Z,17.43
2017-12-17T11:56:29.181Z,11.73
2017-12-17T11:58:58.049Z,12.97
2017-12-17T12:01:26.921Z,13.33
2017-12-17T12:03:55.771Z,11.33
2017-12-17T12:06:24.631Z,13.20
2017-12-17T12:08:53.533Z,11.07
2017-12-17T12:11:22.453Z,9.10
2017-12-17T12:13:51.313Z,10.47
2017-12-17T12:16:20.223Z,10.47
2017-12-17T12:18:49.094Z,10.00
2017-12-17T12:21:17.957Z,11.90
2017-12-17T12:23:47.125Z,11.00
2017-12-17T12:26:16.051Z,10.47
2017-12-17T12:28:44.913Z,10.73
2017-12-17T12:31:13.783Z,9.97
2017-12-17T12:33:42.630Z,8.67
2017-12-17T12:36:11.527Z,12.07
2017-12-17T12:38:40.430Z,11.00
2017-12-17T12:41:09.948Z,12.27
2017-12-17T12:43:38.816Z,11.60
2017-12-17T12:46:07.672Z,10.73
2017-12-17T12:48:36.543Z,13.40
2017-12-17T12:51:05.480Z,12.33
2017-12-17T12:53:34.327Z,14.10
2017-12-17T12:56:03.179Z,15.80
2017-12-17T12:58:32.093Z,15.37
2017-12-17T13:01:01.456Z,13.20
2017-12-17T13:03:30.294Z,13.90
2017-12-17T13:05:59.146Z,16.23
2017-12-17T13:08:28.031Z,12.50
2017-12-17T13:10:56.887Z,15.87
2017-12-17T13:13:25.742Z,15.80
2017-12-17T13:15:54.603Z,16.60
2017-12-17T13:18:25.403Z,14.13
2017-12-17T13:20:54.251Z,15.63
2017-12-17T13:23:23.123Z,15.20
2017-12-17T13:25:51.968Z,14.63
2017-12-17T13:28:20.834Z,17.97
2017-12-17T13:30:50.545Z,15.00
2017-12-17T13:33:19.387Z,16.90
2017-12-17T13:35:48.354Z,18.37
2017-12-17T13:38:18.129Z,21.27
2017-12-17T13:40:47.091Z,23.10
2017-12-17T13:43:15.940Z,19.53
2017-12-17T13:45:44.816Z,18.53
2017-12-17T13:48:13.659Z,21.63
2017-12-17T13:50:43.337Z,17.10
2017-12-17T13:53:12.363Z,21.97
2017-12-17T13:55:41.273Z,26.07
2017-12-17T13:58:10.144Z,36.03
2017-12-17T14:00:39.002Z,24.57
2017-12-17T14:03:07.889Z,21.40
2017-12-17T14:05:36.771Z,79.67
2017-12-17T14:08:05.655Z,41.53
2017-12-17T14:10:34.510Z,37.87
2017-12-17T14:13:04.755Z,23.30
2017-12-17T14:15:33.601Z,29.83
2017-12-17T14:18:02.519Z,26.50
2017-12-17T14:20:31.420Z,66.07
2017-12-17T14:23:00.295Z,27.00
2017-12-17T14:25:29.139Z,23.83
2017-12-17T14:27:58.017Z,26.90
2017-12-17T14:30:26.863Z,28.30
2017-12-17T14:32:55.707Z,22.40
2017-12-17T14:35:25.537Z,27.57
2017-12-17T14:37:54.387Z,29.37
2017-12-17T14:40:24.181Z,26.17
2017-12-17T14:42:53.571Z,25.17
2017-12-17T14:45:22.439Z,22.30
2017-12-17T14:47:51.311Z,22.33
2017-12-17T14:50:20.239Z,24.67
2017-12-17T14:52:49.097Z,26.57
2017-12-17T14:55:18.151Z,33.57
2017-12-17T14:57:47.012Z,33.90
2017-12-17T15:00:15.896Z,55.63
2017-12-17T15:02:44.773Z,29.10
2017-12-17T15:05:13.614Z,24.83
2017-12-17T15:07:42.493Z,21.53
2017-12-17T15:10:11.391Z,23.90
2017-12-17T15:12:40.255Z,22.23
2017-12-17T15:15:09.117Z,26.77
2017-12-17T15:17:37.987Z,21.60
2017-12-17T15:20:06.823Z,28.70
2017-12-17T15:22:35.689Z,25.03
2017-12-17T15:25:04.625Z,29.90
2017-12-17T15:27:33.536Z,25.87
2017-12-17T15:30:03.269Z,27.90
2017-12-17T15:32:33.103Z,29.40
2017-12-17T15:35:01.944Z,26.53
2017-12-17T15:37:30.802Z,22.67
2017-12-17T15:39:59.658Z,22.80
2017-12-17T15:42:28.571Z,25.83
2017-12-17T15:44:57.920Z,24.40
2017-12-17T15:47:26.797Z,26.77
2017-12-17T15:49:55.640Z,24.13
2017-12-17T15:52:24.831Z,24.97
2017-12-17T15:54:53.710Z,25.10
2017-12-17T15:57:23.179Z,21.93
2017-12-17T15:59:52.284Z,29.83
2017-12-17T16:02:22.045Z,30.40
2017-12-17T16:04:50.987Z,25.23
2017-12-17T16:07:19.885Z,28.40
2017-12-17T16:09:48.751Z,26.17
2017-12-17T16:12:18.331Z,28.50
2017-12-17T16:14:47.886Z,32.70
2017-12-17T16:17:16.745Z,25.27
2017-12-17T16:19:45.611Z,32.50
2017-12-17T16:22:14.463Z,28.57
2017-12-17T16:24:44.088Z,28.40
2017-12-17T16:27:12.947Z,38.97
2017-12-17T16:29:41.798Z,27.13
2017-12-17T16:32:10.668Z,47.30
2017-12-17T16:34:39.578Z,29.67
2017-12-17T16:37:08.428Z,31.40
2017-12-17T16:39:37.334Z,29.60
2017-12-17T16:42:06.209Z,49.00
2017-12-17T16:44:35.056Z,29.33
2017-12-17T16:47:03.950Z,24.70
2017-12-17T16:49:33.367Z,29.63
2017-12-17T16:52:03.052Z,30.53
2017-12-17T16:54:32.886Z,29.43
2017-12-17T16:57:01.750Z,28.77
2017-12-17T16:59:30.607Z,24.33
2017-12-17T17:01:59.491Z,31.23
2017-12-17T17:04:28.686Z,30.67
2017-12-17T17:06:57.536Z,39.13
2017-12-17T17:09:26.747Z,32.93
2017-12-17T17:11:55.607Z,26.80
2017-12-17T17:14:24.516Z,25.03
2017-12-17T17:16:53.474Z,30.37
2017-12-17T17:19:22.348Z,35.50
2017-12-17T17:21:51.196Z,38.17
2017-12-17T17:24:20.160Z,31.40
2017-12-17T17:26:49.816Z,36.83
2017-12-17T17:29:18.664Z,34.27
2017-12-17T17:31:47.590Z,33.17
2017-12-17T17:34:17.436Z,33.67
2017-12-17T17:36:46.382Z,30.60
2017-12-17T17:39:15.253Z,31.30
2017-12-17T17:41:44.208Z,38.63
2017-12-17T17:44:13.092Z,34.73
2017-12-17T17:46:41.979Z,37.53
2017-12-17T17:49:10.818Z,41.43
2017-12-17T17:51:39.698Z,33.43
2017-12-17T17:54:08.616Z,38.43
2017-12-17T17:56:37.540Z,37.43
2017-12-17T17:59:06.472Z,34.30
2017-12-17T18:01:35.368Z,36.90
2017-12-17T18:04:04.440Z,33.47
2017-12-17T18:06:33.261Z,34.50
2017-12-17T18:09:02.200Z,32.23
2017-12-17T18:11:31.067Z,33.90
2017-12-17T18:14:00.817Z,31.73
2017-12-17T18:16:29.871Z,36.10
2017-12-17T18:18:58.748Z,32.93
2017-12-17T18:21:27.612Z,33.40
2017-12-17T18:23:56.612Z,34.27
2017-12-17T18:26:26.265Z,51.03
2017-12-17T18:28:55.156Z,36.23
2017-12-17T18:31:24.017Z,33.07
2017-12-17T18:33:53.054Z,35.57
2017-12-17T18:36:21.954Z,34.97
2017-12-17T18:38:50.839Z,45.77
2017-12-17T18:41:19.727Z,35.50
2017-12-17T18:43:48.644Z,36.07
2017-12-17T18:46:17.819Z,35.10
2017-12-17T18:48:46.696Z,36.03
2017-12-17T18:51:15.567Z,33.90
2017-12-17T18:53:44.445Z,30.40
2017-12-17T18:56:13.517Z,43.57
2017-12-17T18:58:42.653Z,30.40
2017-12-17T19:01:11.605Z,30.23
2017-12-17T19:03:40.464Z,45.00
2017-12-17T19:06:09.533Z,35.83
2017-12-17T19:08:38.447Z,28.73
2017-12-17T19:11:07.520Z,23.63
2017-12-17T19:13:36.485Z,28.50
2017-12-17T19:16:05.847Z,27.97
2017-12-17T19:18:34.690Z,28.27
2017-12-17T19:21:04.096Z,27.37
2017-12-17T19:23:33.246Z,22.37
2017-12-17T19:26:03.005Z,26.50
2017-12-17T19:28:32.121Z,25.07
2017-12-17T19:31:01.018Z,32.00
2017-12-17T19:33:29.905Z,24.47
2017-12-17T19:35:58.774Z,27.43
2017-12-17T19:38:28.483Z,23.17
2017-12-17T19:41:01.116Z,22.17
2017-12-17T19:43:30.102Z,20.73
2017-12-17T19:45:59.168Z,21.97
2017-12-17T19:48:28.799Z,27.87
2017-12-17T19:50:58.733Z,29.20
2017-12-17T19:53:27.648Z,24.57
2017-12-17T19:55:56.734Z,30.90
2017-12-17T19:58:25.856Z,28.03
2017-12-17T20:00:55.758Z,29.43
2017-12-17T20:03:24.648Z,28.33
2017-12-17T20:05:53.861Z,30.67
2017-12-17T20:08:23.632Z,32.87
2017-12-17T20:10:52.763Z,29.00
2017-12-17T20:13:21.920Z,29.97
2017-12-17T20:15:50.820Z,32.47
2017-12-17T20:18:19.981Z,28.73
2017-12-17T20:20:49.130Z,28.10
2017-12-17T20:23:18.228Z,35.67
2017-12-17T20:25:47.153Z,28.40
2017-12-17T20:28:16.035Z,23.93
2017-12-17T20:30:45.116Z,29.87
2017-12-17T20:33:13.985Z,27.67
2017-12-17T20:35:42.875Z,34.83
2017-12-17T20:38:11.954Z,57.73
2017-12-17T20:40:40.839Z,27.37
2017-12-17T20:43:09.972Z,19.73
2017-12-17T20:45:39.066Z,26.50
2017-12-17T20:48:08.184Z,25.53
2017-12-17T20:50:37.671Z,26.90
2017-12-17T20:53:06.511Z,28.23
2017-12-17T20:55:35.701Z,23.90
2017-12-17T20:58:04.887Z,27.70
2017-12-17T21:00:34.020Z,32.87
2017-12-17T21:03:03.518Z,27.57
2017-12-17T21:05:32.449Z,33.63
2017-12-17T21:08:01.532Z,33.03
2017-12-17T21:10:30.410Z,31.60
2017-12-17T21:12:59.475Z,30.80
2017-12-17T21:15:28.772Z,33.23
2017-12-17T21:17:57.662Z,34.80
2017-12-17T21:20:26.673Z,30.13
2017-12-17T21:22:55.619Z,28.97
2017-12-17T21:25:25.058Z,35.40
2017-12-17T21:27:53.976Z,36.03
2017-12-17T21:30:22.899Z,48.13
2017-12-17T21:32:52.271Z,32.70
2017-12-17T21:35:21.122Z,38.87
2017-12-17T21:37:50.032Z,28.90
2017-12-17T21:40:18.889Z,28.57
2017-12-17T21:42:47.804Z,21.20
2017-12-17T21:45:16.713Z,26.20
2017-12-17T21:47:45.634Z,25.27
2017-12-17T21:50:14.524Z,35.23
2017-12-17T21:52:43.372Z,35.57
2017-12-17T21:55:12.287Z,28.77
2017-12-17T21:57:41.155Z,40.17
2017-12-17T22:00:10.024Z,27.47
2017-12-17T22:02:38.893Z,32.73
2017-12-17T22:05:07.804Z,24.53
2017-12-17T22:07:36.680Z,32.63
2017-12-17T22:10:05.546Z,29.53
2017-12-17T22:12:34.428Z,27.20
2017-12-17T22:15:03.348Z,18.27
2017-12-17T22:17:32.161Z,25.17
2017-12-17T22:20:01.036Z,32.43
2017-12-17T22:22:29.949Z,20.33
2017-12-17T22:24:59.805Z,24.50
2017-12-17T22:27:28.708Z,26.43
2017-12-17T22:29:57.583Z,33.33
2017-12-17T22:32:26.623Z,32.27
2017-12-17T22:34:55.481Z,16.83
2017-12-17T22:37:24.338Z,25.10
2017-12-17T22:39:53.219Z,27.27
2017-12-17T22:42:22.087Z,30.57
2017-12-17T22:44:50.929Z,24.73
2017-12-17T22:47:20.520Z,22.30
2017-12-17T22:49:49.458Z,19.43
2017-12-17T22:52:18.334Z,26.80
2017-12-17T22:54:47.180Z,31.30
2017-12-17T22:57:16.027Z,27.80
2017-12-17T22:59:44.865Z,31.30
2017-12-17T23:02:14.646Z,24.07
2017-12-17T23:04:43.513Z,19.47
2017-12-17T23:07:12.448Z,20.33
2017-12-17T23:09:41.366Z,26.10
2017-12-17T23:12:10.224Z,20.87
2017-12-17T23:14:39.061Z,24.07
2017-12-17T23:17:07.912Z,28.97
2017-12-17T23:19:36.772Z,12.93
2017-12-17T23:22:05.654Z,0.00
2017-12-17T23:24:35.361Z,0.00
2017-12-17T23:27:04.246Z,0.73
2017-12-17T23:29:33.143Z,0.00
2017-12-17T23:32:01.986Z,0.00
2017-12-17T23:34:30.844Z,0.00
2017-12-17T23:36:59.722Z,0.00
2017-12-17T23:39:28.572Z,0.00
2017-12-17T23:41:57.483Z,0.00
2017-12-17T23:44:26.326Z,0.03
2017-12-17T23:46:55.164Z,0.03
2017-12-17T23:49:24.745Z,0.00
2017-12-17T23:51:53.610Z,0.00
2017-12-17T23:54:22.442Z,0.00
2017-12-17T23:56:51.308Z,0.20
2017-12-17T23:59:20.443Z,0.00
